createdAt,value
2019-03-05T00:06:43.790Z,8.53
2019-03-05T00:09:51.773Z,1.80
2019-03-05T00:12:19.004Z,2.73
2019-03-05T00:14:58.516Z,2.00
2019-03-05T00:17:25.720Z,1.63
2019-03-05T00:23:44.708Z,1.50
2019-03-05T00:30:02.180Z,1.33
2019-03-05T00:32:48.813Z,6.53
2019-03-05T00:35:54.967Z,3.20
2019-03-05T00:38:54.648Z,1.77
2019-03-05T00:42:06.132Z,2.00
2019-03-05T00:45:12.232Z,2.87
2019-03-05T00:48:18.283Z,7.80
2019-03-05T00:58:06.729Z,7.50
2019-03-05T01:01:12.935Z,5.63
2019-03-05T01:04:18.967Z,3.23
2019-03-05T01:16:21.195Z,2.40
2019-03-05T01:18:48.262Z,1.70
2019-03-05T01:21:56.351Z,2.20
2019-03-05T01:40:08.640Z,2.30
2019-03-05T01:43:16.654Z,3.33
2019-03-05T01:45:44.235Z,5.47
2019-03-05T01:57:15.287Z,9.37
2019-03-05T02:00:29.816Z,4.13
2019-03-05T02:09:11.111Z,3.27
2019-03-05T02:15:11.799Z,12.73
2019-03-05T02:17:38.863Z,5.10
2019-03-05T02:20:39.481Z,4.53
2019-03-05T02:23:45.540Z,6.27
2019-03-05T02:26:51.681Z,3.00
2019-03-05T02:29:57.758Z,6.00
2019-03-05T02:32:51.270Z,3.43
2019-03-05T02:35:57.393Z,5.00
2019-03-05T02:39:03.843Z,8.43
2019-03-05T02:42:10.060Z,7.30
2019-03-05T02:44:49.886Z,4.20
2019-03-05T02:54:10.363Z,6.93
2019-03-05T02:57:05.528Z,4.57
2019-03-05T03:00:13.536Z,3.63
2019-03-05T03:06:46.569Z,6.40
2019-03-05T03:12:39.758Z,6.67
2019-03-05T03:18:28.454Z,4.83
2019-03-05T03:20:55.546Z,6.60
2019-03-05T03:23:22.703Z,9.53
2019-03-05T03:25:49.901Z,12.13
2019-03-05T03:31:37.224Z,5.87
2019-03-05T03:43:09.047Z,6.33
2019-03-05T03:48:37.365Z,7.40
2019-03-05T03:57:06.977Z,7.13
2019-03-05T03:59:34.184Z,7.50
2019-03-05T04:02:01.465Z,5.30
2019-03-05T04:05:11.281Z,6.90
2019-03-05T04:14:00.171Z,4.40
2019-03-05T04:17:15.744Z,6.10
2019-03-05T04:19:42.929Z,4.00
2019-03-05T04:25:11.692Z,8.97
2019-03-05T04:30:40.119Z,5.43
2019-03-05T04:33:19.672Z,20.03
2019-03-05T04:38:47.826Z,5.13
2019-03-05T04:41:15.016Z,6.23
2019-03-05T04:43:43.010Z,5.50
2019-03-05T04:52:48.903Z,6.83
2019-03-05T04:55:47.889Z,3.73
2019-03-05T05:07:18.633Z,9.80
2019-03-05T05:12:46.971Z,4.10
2019-03-05T05:15:33.721Z,6.10
2019-03-05T05:21:15.095Z,6.10
2019-03-05T05:24:01.750Z,20.70
2019-03-05T05:26:28.957Z,5.03
2019-03-05T05:28:56.109Z,5.97
2019-03-05T05:31:23.681Z,11.00
2019-03-05T05:33:50.861Z,5.00
2019-03-05T05:36:37.560Z,9.27
2019-03-05T05:39:46.490Z,4.50
2019-03-05T05:48:49.277Z,8.13
2019-03-05T05:51:35.903Z,7.33
2019-03-05T05:54:03.131Z,6.43
2019-03-05T06:03:27.468Z,8.20
2019-03-05T06:05:54.603Z,7.20
2019-03-05T06:11:42.569Z,5.87
2019-03-05T06:14:10.255Z,5.90
2019-03-05T06:16:37.419Z,6.73
2019-03-05T06:19:04.505Z,6.03
2019-03-05T06:24:33.314Z,7.40
2019-03-05T06:30:01.898Z,7.43
2019-03-05T06:32:30.934Z,5.10
2019-03-05T06:37:58.998Z,8.87
2019-03-05T06:40:26.599Z,6.07
2019-03-05T06:43:25.569Z,9.50
2019-03-05T06:45:53.117Z,7.40
2019-03-05T06:49:01.483Z,11.37
2019-03-05T06:54:49.162Z,8.80
2019-03-05T06:57:48.360Z,4.70
2019-03-05T07:07:00.683Z,8.40
2019-03-05T07:10:06.796Z,7.10
2019-03-05T07:12:58.653Z,6.53
2019-03-05T07:15:57.398Z,8.60
2019-03-05T07:18:48.687Z,9.10
2019-03-05T07:24:55.187Z,5.07
2019-03-05T07:27:43.242Z,2.20
2019-03-05T07:30:29.912Z,7.40
2019-03-05T07:36:18.004Z,5.40
2019-03-05T07:44:48.110Z,5.97
2019-03-05T07:50:16.602Z,5.30
2019-03-05T07:55:44.878Z,3.57
2019-03-05T07:58:24.117Z,6.10
2019-03-05T08:01:21.511Z,5.33
2019-03-05T08:03:45.787Z,8.33
2019-03-05T08:06:13.000Z,3.60
2019-03-05T08:09:19.071Z,4.40
2019-03-05T08:11:46.279Z,7.40
2019-03-05T08:15:01.049Z,7.80
2019-03-05T08:18:00.237Z,6.40
2019-03-05T08:24:01.179Z,4.00
2019-03-05T08:32:16.977Z,5.10
2019-03-05T08:34:44.028Z,4.70
2019-03-05T08:37:13.363Z,5.63
2019-03-05T08:40:00.468Z,7.87
2019-03-05T08:42:27.622Z,8.27
2019-03-05T08:44:54.771Z,6.20
2019-03-05T08:50:23.393Z,12.53
2019-03-05T08:52:50.590Z,7.00
2019-03-05T08:58:19.327Z,4.97
2019-03-05T09:03:47.651Z,4.73
2019-03-05T09:06:26.593Z,3.67
2019-03-05T09:09:05.615Z,7.03
2019-03-05T09:14:53.634Z,7.37
2019-03-05T09:23:35.652Z,4.67
2019-03-05T09:41:21.667Z,13.63
2019-03-05T09:43:49.001Z,5.60
2019-03-05T09:46:57.346Z,4.53
2019-03-05T09:53:10.893Z,8.93
2019-03-05T09:55:38.045Z,4.00
2019-03-05T09:58:46.465Z,5.93
2019-03-05T10:36:20.440Z,1.33
2019-03-05T10:38:56.901Z,9.63
2019-03-05T10:41:36.975Z,2.00
2019-03-05T10:47:37.818Z,1.77
2019-03-05T10:56:19.950Z,1.87
2019-03-05T10:59:06.625Z,3.40
2019-03-05T11:01:33.847Z,1.10
2019-03-05T11:07:20.963Z,2.53
2019-03-05T11:10:00.658Z,1.53
2019-03-05T11:12:28.232Z,3.37
2019-03-05T11:14:55.526Z,3.77
2019-03-05T11:17:34.758Z,2.00
2019-03-05T11:20:02.281Z,2.30
2019-03-05T11:23:12.193Z,4.30
2019-03-05T11:25:39.502Z,5.00
2019-03-05T11:28:47.606Z,6.00
2019-03-05T11:34:47.536Z,1.60
2019-03-05T11:43:36.753Z,6.83
2019-03-05T11:46:45.602Z,2.33
2019-03-05T11:52:14.319Z,4.83
2019-03-05T11:55:22.301Z,2.90
2019-03-05T12:03:51.717Z,2.13
2019-03-05T12:06:18.879Z,2.20
2019-03-05T12:08:46.091Z,4.23
2019-03-05T12:11:13.299Z,1.07
2019-03-05T12:13:40.519Z,3.80
2019-03-05T12:16:24.318Z,8.10
2019-03-05T12:22:43.268Z,2.33
2019-03-05T12:28:46.013Z,1.13
2019-03-05T12:31:13.198Z,1.53
2019-03-05T12:33:40.352Z,1.30
2019-03-05T12:36:07.587Z,1.10
2019-03-05T12:44:56.153Z,4.40
2019-03-05T12:48:04.043Z,4.50
2019-03-05T12:50:43.443Z,2.07
2019-03-05T13:02:46.200Z,1.50
2019-03-05T13:11:16.314Z,2.80
2019-03-05T13:13:43.524Z,26.57
2019-03-05T13:19:11.712Z,6.57
2019-03-05T13:21:38.884Z,1.70
2019-03-05T13:24:37.872Z,2.40
2019-03-05T13:27:05.388Z,3.00
2019-03-05T13:29:32.544Z,7.70
2019-03-05T13:31:59.748Z,2.27
2019-03-05T13:34:27.273Z,2.20
2019-03-05T13:36:54.449Z,1.57
2019-03-05T13:39:22.195Z,1.67
2019-03-05T13:42:10.946Z,2.57
2019-03-05T13:51:28.626Z,2.87
2019-03-05T13:54:36.645Z,2.33
2019-03-05T13:57:43.690Z,2.23
2019-03-05T14:07:28.106Z,3.43
2019-03-05T14:12:57.190Z,1.80
2019-03-05T14:18:31.298Z,1.97
2019-03-05T14:20:58.437Z,1.73
2019-03-05T14:23:25.632Z,1.30
2019-03-05T14:25:53.818Z,1.67
2019-03-05T14:28:41.720Z,1.00
2019-03-05T14:31:21.056Z,1.10
2019-03-05T14:33:50.408Z,3.60
2019-03-05T14:36:37.438Z,2.20
2019-03-05T14:42:45.898Z,1.40
2019-03-05T14:45:56.669Z,1.43
2019-03-05T14:48:36.346Z,3.67
2019-03-05T14:54:29.660Z,3.07
2019-03-05T14:56:56.868Z,4.03
2019-03-05T14:59:24.410Z,1.10
2019-03-05T15:01:51.595Z,7.63
2019-03-05T15:04:18.820Z,1.90
2019-03-05T15:06:46.296Z,1.83
2019-03-05T15:09:13.535Z,2.00
2019-03-05T15:11:40.711Z,2.10
2019-03-05T15:14:55.654Z,2.40
2019-03-05T15:17:22.833Z,1.50
2019-03-05T15:19:50.007Z,1.27
2019-03-05T15:22:17.257Z,5.03
2019-03-05T15:27:42.801Z,3.63
2019-03-05T15:30:52.029Z,1.13
2019-03-05T15:33:19.238Z,1.10
2019-03-05T15:35:46.356Z,1.30
2019-03-05T15:41:15.042Z,1.47
2019-03-05T15:44:23.097Z,3.13
2019-03-05T15:46:50.369Z,1.70
2019-03-05T15:55:19.794Z,4.37
2019-03-05T16:00:48.263Z,1.20
2019-03-05T16:06:17.070Z,1.70
2019-03-05T16:08:44.282Z,1.97
2019-03-05T16:11:11.437Z,9.00
2019-03-05T16:13:58.231Z,2.20
2019-03-05T16:16:25.452Z,1.73
2019-03-05T16:19:33.475Z,1.03
2019-03-05T16:28:23.137Z,3.03
2019-03-05T16:37:12.120Z,1.53
2019-03-05T16:39:58.870Z,2.40
2019-03-05T16:42:34.602Z,4.77
2019-03-05T16:48:11.111Z,1.60
2019-03-05T16:50:57.943Z,2.20
2019-03-05T16:53:44.748Z,3.93
2019-03-05T16:56:31.713Z,3.17
2019-03-05T17:02:09.642Z,5.00
2019-03-05T17:04:56.375Z,1.70
2019-03-05T17:10:37.660Z,4.30
2019-03-05T17:13:04.886Z,2.53
2019-03-05T17:15:32.058Z,9.27
2019-03-05T17:17:59.192Z,7.07
2019-03-05T17:20:26.372Z,2.50
2019-03-05T17:22:53.663Z,4.30
2019-03-05T17:25:21.205Z,2.97
2019-03-05T17:27:48.415Z,1.90
2019-03-05T17:30:16.134Z,2.50
2019-03-05T17:32:43.491Z,3.57
2019-03-05T17:35:10.903Z,1.70
2019-03-05T17:37:38.106Z,1.50
2019-03-05T17:40:06.893Z,2.70
2019-03-05T17:42:34.473Z,3.30
2019-03-05T17:45:01.678Z,2.13
2019-03-05T17:47:29.176Z,2.10
2019-03-05T17:49:56.357Z,1.63
2019-03-05T17:52:23.909Z,3.23
2019-03-05T17:54:51.361Z,3.57
2019-03-05T17:57:18.584Z,5.57
2019-03-05T17:59:45.784Z,10.53
2019-03-05T18:02:13.188Z,2.77
2019-03-05T18:04:40.746Z,4.33
2019-03-05T18:07:08.394Z,2.23
2019-03-05T18:09:36.017Z,3.70
2019-03-05T18:12:03.513Z,3.33
2019-03-05T18:14:30.733Z,6.70
2019-03-05T18:16:58.033Z,3.90
2019-03-05T18:19:25.470Z,6.33
2019-03-05T18:21:52.644Z,3.40
2019-03-05T18:24:19.881Z,5.33
2019-03-05T18:26:47.095Z,2.70
2019-03-05T18:29:14.332Z,5.10
2019-03-05T18:31:41.914Z,3.87
2019-03-05T18:34:09.076Z,2.90
2019-03-05T18:36:36.655Z,2.37
2019-03-05T18:39:04.724Z,4.47
2019-03-05T18:41:32.054Z,2.17
2019-03-05T18:43:59.321Z,7.03
2019-03-05T18:46:26.806Z,3.43
2019-03-05T18:48:53.983Z,1.73
2019-03-05T18:51:21.338Z,3.10
2019-03-05T18:53:49.417Z,7.10
2019-03-05T18:56:16.624Z,1.73
2019-03-05T18:58:43.935Z,2.13
2019-03-05T19:01:11.353Z,3.47
2019-03-05T19:03:38.578Z,2.50
2019-03-05T19:06:06.136Z,2.77
2019-03-05T19:08:33.721Z,2.67
2019-03-05T19:11:00.909Z,3.43
2019-03-05T19:13:28.373Z,7.17
2019-03-05T19:15:55.597Z,5.23
2019-03-05T19:18:22.791Z,2.90
2019-03-05T19:20:49.979Z,3.00
2019-03-05T19:23:17.274Z,3.60
2019-03-05T19:25:44.866Z,2.77
2019-03-05T19:28:12.291Z,3.00
2019-03-05T19:30:39.850Z,5.80
2019-03-05T19:33:06.921Z,3.57
2019-03-05T19:35:34.238Z,2.97
2019-03-05T19:38:01.501Z,3.23
2019-03-05T19:40:31.033Z,2.10
2019-03-05T19:42:58.299Z,3.33
2019-03-05T19:45:25.465Z,5.13
2019-03-05T19:47:52.884Z,3.63
2019-03-05T19:50:20.323Z,4.27
2019-03-05T19:52:47.758Z,3.40
2019-03-05T19:55:16.598Z,3.57
2019-03-05T19:57:43.864Z,4.30
2019-03-05T20:00:14.581Z,3.27
2019-03-05T20:02:42.233Z,3.83
2019-03-05T20:05:10.905Z,5.00
2019-03-05T20:07:38.672Z,3.90
2019-03-05T20:10:07.685Z,4.10
2019-03-05T20:12:34.927Z,4.40
2019-03-05T20:15:02.250Z,6.80
2019-03-05T20:17:29.809Z,4.60
2019-03-05T20:19:57.421Z,4.60
2019-03-05T20:22:25.199Z,6.30
2019-03-05T20:24:52.387Z,7.80
2019-03-05T20:27:19.596Z,6.10
2019-03-05T20:29:47.147Z,7.73
2019-03-05T20:32:14.861Z,9.90
2019-03-05T20:34:42.609Z,10.30
2019-03-05T20:37:10.543Z,6.77
2019-03-05T20:39:38.547Z,7.17
2019-03-05T20:42:05.990Z,6.27
2019-03-05T20:44:33.878Z,7.30
2019-03-05T20:47:01.046Z,8.93
2019-03-05T20:49:28.341Z,7.60
2019-03-05T20:51:58.322Z,7.60
2019-03-05T20:54:25.629Z,9.87
2019-03-05T20:56:53.191Z,7.53
2019-03-05T20:59:20.493Z,9.23
2019-03-05T21:01:48.024Z,8.57
2019-03-05T21:04:15.570Z,8.23
2019-03-05T21:06:42.885Z,7.47
2019-03-05T21:09:21.874Z,7.80
2019-03-05T21:11:49.504Z,9.17
2019-03-05T21:14:16.791Z,10.80
2019-03-05T21:16:44.356Z,9.50
2019-03-05T21:19:11.522Z,11.10
2019-03-05T21:21:38.794Z,9.77
2019-03-05T21:24:06.010Z,13.30
2019-03-05T21:26:33.195Z,15.83
2019-03-05T21:29:00.675Z,10.70
2019-03-05T21:31:27.927Z,11.57
2019-03-05T21:33:55.270Z,18.03
2019-03-05T21:36:22.596Z,12.40
2019-03-05T21:38:49.837Z,11.87
2019-03-05T21:41:17.328Z,11.47
2019-03-05T21:43:44.787Z,11.77
2019-03-05T21:46:15.136Z,13.13
2019-03-05T21:48:42.716Z,12.50
2019-03-05T21:51:10.019Z,14.00
2019-03-05T21:53:37.483Z,14.17
2019-03-05T21:56:05.135Z,12.73
2019-03-05T21:58:32.318Z,16.37
2019-03-05T22:00:59.537Z,21.70
2019-03-05T22:03:26.765Z,13.70
2019-03-05T22:05:53.898Z,16.00
2019-03-05T22:08:21.451Z,14.57
2019-03-05T22:10:48.661Z,13.07
2019-03-05T22:13:15.863Z,14.80
2019-03-05T22:15:43.057Z,13.50
2019-03-05T22:18:10.264Z,16.43
2019-03-05T22:20:37.548Z,16.50
2019-03-05T22:23:04.843Z,18.43
2019-03-05T22:25:32.047Z,15.50
2019-03-05T22:27:59.280Z,17.00
2019-03-05T22:30:27.089Z,15.10
2019-03-05T22:32:54.179Z,15.87
2019-03-05T22:35:21.651Z,14.23
2019-03-05T22:37:48.826Z,15.13
2019-03-05T22:40:16.655Z,15.47
2019-03-05T22:42:44.030Z,15.63
2019-03-05T22:45:14.097Z,19.10
2019-03-05T22:47:41.225Z,18.47
2019-03-05T22:50:09.237Z,16.13
2019-03-05T22:52:36.521Z,14.03
2019-03-05T22:55:04.593Z,19.10
2019-03-05T22:57:31.790Z,19.57
2019-03-05T22:59:59.019Z,17.43
2019-03-05T23:02:26.409Z,18.43
2019-03-05T23:04:54.271Z,16.17
2019-03-05T23:07:21.487Z,20.60
2019-03-05T23:09:48.712Z,17.70
2019-03-05T23:12:15.947Z,16.23
2019-03-05T23:14:43.779Z,18.70
2019-03-05T23:17:12.007Z,18.37
2019-03-05T23:19:39.178Z,18.63
2019-03-05T23:22:06.369Z,20.10
2019-03-05T23:24:34.029Z,19.17
2019-03-05T23:27:01.414Z,18.23
2019-03-05T23:29:57.717Z,16.47
2019-03-05T23:32:25.354Z,18.47
2019-03-05T23:34:53.119Z,16.83
2019-03-05T23:37:20.241Z,14.40
2019-03-05T23:39:47.437Z,12.87
2019-03-05T23:42:14.676Z,13.90
2019-03-05T23:44:42.010Z,13.30
2019-03-05T23:47:09.463Z,13.67
2019-03-05T23:49:36.635Z,13.97
2019-03-05T23:52:04.163Z,16.07
2019-03-05T23:54:31.649Z,14.97
2019-03-05T23:56:58.928Z,14.27
2019-03-05T23:59:26.167Z,16.60
